Time;durP1;ratioP1;P1;durP2;ratioP2;P2;SDS_P1;SDS_P2;PMS_P1;PMS_P2;Temp;Humidity;BMP_temperature;BMP_pressure;BME280_temperature;BME280_humidity;BME280_pressure;Samples;Min_cycle;Max_cycle;Signal;HPM_P1;HPM_P2
2023/06/05 00:00:35;;;;;;;1.90;1.80;;;;;;;;;;5033425;28;20238;-79
2023/06/05 00:03:02;;;;;;;1.73;1.63;;;;;;;;;;5042099;28;20260;-79
2023/06/05 00:05:29;;;;;;;2.50;2.33;;;;;;;;;;5041462;28;20650;-80
2023/06/05 00:07:56;;;;;;;2.73;1.90;;;;;;;;;;5041571;28;20288;-79
2023/06/05 00:10:23;;;;;;;1.70;1.60;;;;;;;;;;5052810;28;20680;-79
2023/06/05 00:12:50;;;;;;;3.43;2.00;;;;;;;;;;5050957;28;20198;-80
2023/06/05 00:15:19;;;;;;;2.70;2.00;;;;;;;;;;5036474;28;20639;-80
2023/06/05 00:17:47;;;;;;;2.50;1.83;;;;;;;;;;5045461;28;20233;-79
2023/06/05 00:20:14;;;;;;;1.90;1.80;;;;;;;;;;5034849;28;20234;-79
2023/06/05 00:22:44;;;;;;;3.33;1.87;;;;;;;;;;5041748;28;20209;-79
2023/06/05 00:25:11;;;;;;;3.07;1.93;;;;;;;;;;5042541;28;20239;-80
2023/06/05 00:27:40;;;;;;;5.20;1.87;;;;;;;;;;5040142;28;20276;-81
2023/06/05 00:30:08;;;;;;;2.33;1.90;;;;;;;;;;5042066;28;20234;-79
2023/06/05 00:32:37;;;;;;;1.97;1.77;;;;;;;;;;5053121;28;20656;-79
2023/06/05 00:35:04;;;;;;;2.93;1.97;;;;;;;;;;5044367;28;20653;-80
2023/06/05 00:37:31;;;;;;;2.00;1.80;;;;;;;;;;5045073;28;20638;-79
2023/06/05 00:39:58;;;;;;;1.80;1.70;;;;;;;;;;5044463;28;20741;-79
2023/06/05 00:42:26;;;;;;;2.77;1.70;;;;;;;;;;5041655;28;20202;-79
2023/06/05 00:44:53;;;;;;;1.60;1.50;;;;;;;;;;5040885;28;20262;-80
2023/06/05 00:47:20;;;;;;;2.30;2.10;;;;;;;;;;5041109;28;20229;-79
2023/06/05 00:49:49;;;;;;;1.93;1.73;;;;;;;;;;5040775;28;20238;-79
2023/06/05 00:52:16;;;;;;;2.70;2.00;;;;;;;;;;5040406;28;20206;-79
2023/06/05 00:54:43;;;;;;;1.73;1.63;;;;;;;;;;5046313;28;20258;-79
2023/06/05 00:57:10;;;;;;;2.97;1.70;;;;;;;;;;5043116;28;20285;-79
2023/06/05 00:59:40;;;;;;;3.33;1.80;;;;;;;;;;5032391;28;20234;-79
2023/06/05 01:02:07;;;;;;;1.70;1.60;;;;;;;;;;5041646;28;20726;-79
2023/06/05 01:04:36;;;;;;;1.93;1.80;;;;;;;;;;5044151;28;20245;-79
2023/06/05 01:07:05;;;;;;;1.93;1.80;;;;;;;;;;5047903;28;20229;-79
2023/06/05 01:09:32;;;;;;;2.67;1.80;;;;;;;;;;5034936;28;20761;-78
2023/06/05 01:12:01;;;;;;;2.40;1.80;;;;;;;;;;5047026;28;20216;-78
2023/06/05 01:14:30;;;;;;;4.00;1.90;;;;;;;;;;5046698;28;20317;-78
2023/06/05 01:17:00;;;;;;;1.90;1.80;;;;;;;;;;5041250;28;20743;-79
2023/06/05 01:19:28;;;;;;;2.47;2.10;;;;;;;;;;5043126;28;20241;-78
2023/06/05 01:21:56;;;;;;;2.27;1.63;;;;;;;;;;5045013;28;20241;-79
2023/06/05 01:24:25;;;;;;;3.53;1.87;;;;;;;;;;5033078;28;20308;-78
2023/06/05 01:27:00;;;;;;;1.70;1.60;;;;;;;;;;5046513;28;20225;-79
2023/06/05 01:29:29;;;;;;;2.10;1.70;;;;;;;;;;5034823;28;20317;-78
2023/06/05 01:31:58;;;;;;;4.53;1.90;;;;;;;;;;5043802;28;20680;-78
2023/06/05 01:34:27;;;;;;;2.00;1.80;;;;;;;;;;5042392;28;20248;-78
2023/06/05 01:36:54;;;;;;;2.23;2.03;;;;;;;;;;5043546;28;20257;-78
2023/06/05 01:39:21;;;;;;;2.73;1.90;;;;;;;;;;5040440;28;20214;-78
2023/06/05 01:41:51;;;;;;;2.23;2.03;;;;;;;;;;5045904;28;20672;-78
2023/06/05 01:44:18;;;;;;;2.57;2.07;;;;;;;;;;5048670;28;20275;-78
2023/06/05 01:46:45;;;;;;;3.93;2.00;;;;;;;;;;5032964;28;20213;-78
2023/06/05 01:49:12;;;;;;;2.30;2.10;;;;;;;;;;5041575;28;20658;-78
2023/06/05 01:51:39;;;;;;;2.23;2.03;;;;;;;;;;5042843;28;20263;-79
2023/06/05 01:54:07;;;;;;;2.17;1.87;;;;;;;;;;5031003;28;20654;-78
2023/06/05 01:56:36;;;;;;;4.17;2.00;;;;;;;;;;5047420;28;20211;-78
2023/06/05 01:59:07;;;;;;;2.70;1.80;;;;;;;;;;5040604;28;20263;-79
2023/06/05 02:01:34;;;;;;;2.00;1.90;;;;;;;;;;5034653;28;20238;-79
2023/06/05 02:04:04;;;;;;;2.40;2.20;;;;;;;;;;5051009;28;20229;-79
2023/06/05 02:06:35;;;;;;;2.53;2.00;;;;;;;;;;5039530;28;20226;-78
2023/06/05 02:09:02;;;;;;;2.97;2.77;;;;;;;;;;5039696;28;20207;-78
2023/06/05 02:11:29;;;;;;;2.10;1.97;;;;;;;;;;5030601;28;20226;-78
2023/06/05 02:13:56;;;;;;;2.47;2.00;;;;;;;;;;5043154;28;20214;-78
2023/06/05 02:16:25;;;;;;;5.33;3.53;;;;;;;;;;5030784;28;20231;-78
2023/06/05 02:18:52;;;;;;;1.90;1.80;;;;;;;;;;5031200;28;20230;-78
2023/06/05 02:21:19;;;;;;;2.33;2.13;;;;;;;;;;5030341;28;20427;-78
2023/06/05 02:23:46;;;;;;;1.90;1.67;;;;;;;;;;5036466;28;20734;-78
2023/06/05 02:26:17;;;;;;;2.83;2.00;;;;;;;;;;5030926;28;20258;-78
2023/06/05 02:28:44;;;;;;;2.20;2.00;;;;;;;;;;5031209;28;20317;-78
2023/06/05 02:31:16;;;;;;;4.83;2.17;;;;;;;;;;5034338;28;20284;-78
2023/06/05 02:33:44;;;;;;;2.00;1.90;;;;;;;;;;5044651;28;20214;-77
2023/06/05 02:36:15;;;;;;;2.33;2.13;;;;;;;;;;5039988;28;20238;-79
2023/06/05 02:38:42;;;;;;;2.03;1.93;;;;;;;;;;5044615;28;20692;-78
2023/06/05 02:41:09;;;;;;;2.33;2.07;;;;;;;;;;5038968;28;20743;-78
2023/06/05 02:43:37;;;;;;;2.30;2.10;;;;;;;;;;5034730;28;20217;-78
2023/06/05 02:46:04;;;;;;;3.33;1.90;;;;;;;;;;5043030;28;20229;-78
2023/06/05 02:48:31;;;;;;;2.73;2.00;;;;;;;;;;5042534;28;20226;-78
2023/06/05 02:50:59;;;;;;;2.27;2.10;;;;;;;;;;5032011;28;20237;-78
2023/06/05 02:53:26;;;;;;;2.90;2.17;;;;;;;;;;5040070;28;20210;-78
2023/06/05 02:55:55;;;;;;;2.47;2.30;;;;;;;;;;5030515;28;20776;-78
2023/06/05 02:58:22;;;;;;;3.17;2.30;;;;;;;;;;5030837;28;20778;-78
2023/06/05 03:00:50;;;;;;;2.83;2.40;;;;;;;;;;5038224;28;20296;-78
2023/06/05 03:03:17;;;;;;;2.47;2.23;;;;;;;;;;5042815;28;20245;-79
2023/06/05 03:05:45;;;;;;;2.70;2.50;;;;;;;;;;5041957;28;20234;-78
2023/06/05 03:08:13;;;;;;;2.47;2.20;;;;;;;;;;5040485;28;20652;-78
2023/06/05 03:10:40;;;;;;;2.60;2.40;;;;;;;;;;5038878;28;20257;-78
2023/06/05 03:13:07;;;;;;;4.57;2.47;;;;;;;;;;5049035;28;20237;-78
2023/06/05 03:15:35;;;;;;;2.50;2.30;;;;;;;;;;5047189;28;20238;-79
2023/06/05 03:18:02;;;;;;;2.40;2.23;;;;;;;;;;5042507;28;20310;-78
2023/06/05 03:20:29;;;;;;;2.67;2.47;;;;;;;;;;5044821;28;20766;-78
2023/06/05 03:22:56;;;;;;;2.27;2.07;;;;;;;;;;5054082;28;20684;-78
2023/06/05 03:25:25;;;;;;;2.37;2.17;;;;;;;;;;5053656;28;20252;-79
2023/06/05 03:27:52;;;;;;;3.73;2.27;;;;;;;;;;5053940;28;20589;-79
2023/06/05 03:30:19;;;;;;;2.40;2.20;;;;;;;;;;5042316;28;20233;-78
2023/06/05 03:32:47;;;;;;;2.33;2.13;;;;;;;;;;5047863;28;20210;-78
2023/06/05 03:35:14;;;;;;;2.90;2.30;;;;;;;;;;5045207;28;20226;-78
2023/06/05 03:37:41;;;;;;;3.20;2.50;;;;;;;;;;5043876;28;20234;-77
2023/06/05 03:40:09;;;;;;;2.87;2.03;;;;;;;;;;5041976;28;20226;-78
2023/06/05 03:42:38;;;;;;;2.83;2.37;;;;;;;;;;5048771;28;20301;-78
2023/06/05 03:45:06;;;;;;;2.23;2.10;;;;;;;;;;5042560;28;20644;-78
2023/06/05 03:47:34;;;;;;;3.93;2.23;;;;;;;;;;5044518;28;20285;-78
2023/06/05 03:50:02;;;;;;;2.30;2.07;;;;;;;;;;5041441;28;20249;-78
2023/06/05 03:52:29;;;;;;;5.93;2.70;;;;;;;;;;5052233;28;20641;-78
2023/06/05 03:54:57;;;;;;;5.83;2.63;;;;;;;;;;5043587;28;20226;-78
2023/06/05 03:57:24;;;;;;;4.70;2.70;;;;;;;;;;5037374;28;20226;-78
2023/06/05 03:59:52;;;;;;;5.20;2.67;;;;;;;;;;5039795;28;20250;-78
2023/06/05 04:02:19;;;;;;;6.33;2.70;;;;;;;;;;5042997;28;20668;-78
2023/06/05 04:04:46;;;;;;;6.33;2.63;;;;;;;;;;5037730;28;20309;-78
2023/06/05 04:07:13;;;;;;;3.40;2.17;;;;;;;;;;5052891;28;20230;-78
2023/06/05 04:09:40;;;;;;;2.50;2.30;;;;;;;;;;5036559;28;20238;-78
2023/06/05 04:12:08;;;;;;;2.30;2.10;;;;;;;;;;5046983;28;20696;-78
2023/06/05 04:14:35;;;;;;;4.27;2.37;;;;;;;;;;5038883;28;20249;-78
2023/06/05 04:17:04;;;;;;;4.57;2.50;;;;;;;;;;5034160;28;20219;-78
2023/06/05 04:19:31;;;;;;;3.33;2.00;;;;;;;;;;5050377;28;20246;-79
2023/06/05 04:21:59;;;;;;;2.83;2.50;;;;;;;;;;5032968;28;20677;-78
2023/06/05 04:24:26;;;;;;;2.50;2.30;;;;;;;;;;5032432;28;20258;-78
2023/06/05 04:26:53;;;;;;;4.63;2.37;;;;;;;;;;5040417;28;20219;-78
2023/06/05 04:29:20;;;;;;;2.57;2.37;;;;;;;;;;5032569;28;20256;-78
2023/06/05 04:31:48;;;;;;;2.80;2.33;;;;;;;;;;5034700;28;20198;-79
2023/06/05 04:34:17;;;;;;;9.87;2.40;;;;;;;;;;5044207;28;20217;-78
2023/06/05 04:36:46;;;;;;;2.57;2.37;;;;;;;;;;5033056;28;20195;-79
2023/06/05 04:39:14;;;;;;;4.23;2.60;;;;;;;;;;5049968;28;20289;-78
2023/06/05 04:41:44;;;;;;;2.90;2.37;;;;;;;;;;5037391;28;20711;-79
2023/06/05 04:44:12;;;;;;;2.70;2.50;;;;;;;;;;5036330;28;20238;-79
2023/06/05 04:46:39;;;;;;;4.57;2.77;;;;;;;;;;5035786;28;20793;-80
2023/06/05 04:49:07;;;;;;;3.10;2.40;;;;;;;;;;5043665;28;20202;-79
2023/06/05 04:51:36;;;;;;;2.90;2.30;;;;;;;;;;5035583;28;20206;-80
2023/06/05 04:54:03;;;;;;;3.80;2.70;;;;;;;;;;5034951;28;20242;-79
2023/06/05 04:56:32;;;;;;;3.57;2.30;;;;;;;;;;5044121;28;20226;-79
2023/06/05 04:58:59;;;;;;;2.33;2.23;;;;;;;;;;5045335;28;20236;-79
2023/06/05 05:01:27;;;;;;;3.57;2.53;;;;;;;;;;5042871;28;20265;-80
2023/06/05 05:03:54;;;;;;;2.87;2.40;;;;;;;;;;5038956;28;20214;-80
2023/06/05 05:06:22;;;;;;;3.30;2.37;;;;;;;;;;5035870;28;20231;-80
2023/06/05 05:08:50;;;;;;;3.50;2.37;;;;;;;;;;5041679;28;20238;-82
2023/06/05 05:11:18;;;;;;;2.73;2.53;;;;;;;;;;5044694;28;20229;-81
2023/06/05 05:13:45;;;;;;;3.13;2.83;;;;;;;;;;5031914;28;20209;-80
2023/06/05 05:16:12;;;;;;;3.50;2.50;;;;;;;;;;5044531;28;20245;-81
2023/06/05 05:18:42;;;;;;;2.80;2.50;;;;;;;;;;5033999;28;20227;-79
2023/06/05 05:21:09;;;;;;;2.40;2.20;;;;;;;;;;5037985;28;20229;-80
2023/06/05 05:23:36;;;;;;;3.13;2.50;;;;;;;;;;5040416;28;20212;-80
2023/06/05 05:26:05;;;;;;;2.50;2.30;;;;;;;;;;5037317;28;20228;-80
2023/06/05 05:28:32;;;;;;;4.33;2.00;;;;;;;;;;5032499;28;20227;-80
2023/06/05 05:31:00;;;;;;;3.57;2.43;;;;;;;;;;5038991;28;20231;-80
2023/06/05 05:33:27;;;;;;;2.53;2.20;;;;;;;;;;5040502;28;20214;-80
2023/06/05 05:35:54;;;;;;;2.93;2.67;;;;;;;;;;5042742;28;20226;-80
2023/06/05 05:38:21;;;;;;;2.53;2.33;;;;;;;;;;5034282;28;20235;-80
2023/06/05 05:40:48;;;;;;;3.03;2.20;;;;;;;;;;5042523;28;20233;-80
2023/06/05 05:43:17;;;;;;;2.53;1.90;;;;;;;;;;5042784;28;20202;-80
2023/06/05 05:45:44;;;;;;;3.03;2.10;;;;;;;;;;5038987;28;20238;-80
2023/06/05 05:48:12;;;;;;;5.03;2.40;;;;;;;;;;5041895;28;20242;-80
2023/06/05 05:50:39;;;;;;;2.33;1.87;;;;;;;;;;5040282;28;20237;-79
2023/06/05 05:53:06;;;;;;;3.50;1.97;;;;;;;;;;5037426;28;20206;-80
2023/06/05 05:55:33;;;;;;;2.83;2.20;;;;;;;;;;5040233;28;20312;-80
2023/06/05 05:58:00;;;;;;;4.83;2.07;;;;;;;;;;5039092;28;20226;-80
2023/06/05 06:00:28;;;;;;;3.43;2.07;;;;;;;;;;5039564;28;20844;-80
2023/06/05 06:02:55;;;;;;;2.13;1.73;;;;;;;;;;5042718;28;20206;-80
2023/06/05 06:05:22;;;;;;;3.70;1.90;;;;;;;;;;5041849;28;20230;-79
2023/06/05 06:07:49;;;;;;;2.40;2.00;;;;;;;;;;5042280;28;20233;-79
2023/06/05 06:10:17;;;;;;;6.43;2.27;;;;;;;;;;5040507;28;20679;-80
2023/06/05 06:12:45;;;;;;;2.03;1.83;;;;;;;;;;5038747;28;20206;-79
2023/06/05 06:15:12;;;;;;;2.07;1.87;;;;;;;;;;5030547;28;20317;-79
2023/06/05 06:17:40;;;;;;;3.00;1.70;;;;;;;;;;5037376;28;20222;-79
2023/06/05 06:20:09;;;;;;;2.57;1.80;;;;;;;;;;5037722;28;20226;-79
2023/06/05 06:22:36;;;;;;;3.07;1.80;;;;;;;;;;5033558;28;20210;-79
2023/06/05 06:25:03;;;;;;;2.00;1.80;;;;;;;;;;5036125;28;20234;-79
2023/06/05 06:27:30;;;;;;;2.10;1.90;;;;;;;;;;5030538;28;20780;-79
2023/06/05 06:29:58;;;;;;;2.47;1.90;;;;;;;;;;5038693;28;20317;-79
2023/06/05 06:32:26;;;;;;;7.27;2.03;;;;;;;;;;5039542;28;20209;-79
2023/06/05 06:34:54;;;;;;;2.43;1.43;;;;;;;;;;5037335;28;20227;-79
2023/06/05 06:37:22;;;;;;;1.50;1.40;;;;;;;;;;5038872;28;20254;-79
2023/06/05 06:39:50;;;;;;;2.57;1.67;;;;;;;;;;5037703;28;20234;-79
2023/06/05 06:42:17;;;;;;;3.37;1.83;;;;;;;;;;5038712;28;20257;-79
2023/06/05 06:44:44;;;;;;;1.70;1.60;;;;;;;;;;5039584;28;20230;-79
2023/06/05 06:47:11;;;;;;;1.90;1.80;;;;;;;;;;5041433;28;20610;-79
2023/06/05 06:49:39;;;;;;;1.73;1.53;;;;;;;;;;5039774;28;20719;-79
2023/06/05 06:52:07;;;;;;;2.67;1.70;;;;;;;;;;5042036;28;20210;-79
2023/06/05 06:54:34;;;;;;;2.13;1.50;;;;;;;;;;5043486;28;20292;-79
2023/06/05 06:57:01;;;;;;;2.33;1.83;;;;;;;;;;5045901;28;20632;-80
2023/06/05 06:59:28;;;;;;;2.22;1.73;;;;;;;;;;5043940;28;20826;-79
2023/06/05 07:02:11;;;;;;;1.80;1.70;;;;;;;;;;5042137;28;20270;-78
2023/06/05 07:04:40;;;;;;;2.60;1.75;;;;;;;;;;5041668;28;20234;-79
2023/06/05 07:07:09;;;;;;;1.80;1.70;;;;;;;;;;5033734;28;20230;-80
2023/06/05 07:09:36;;;;;;;1.95;1.55;;;;;;;;;;5043307;28;20315;-76
2023/06/05 07:12:05;;;;;;;1.65;1.30;;;;;;;;;;5045460;28;20618;-76
2023/06/05 07:14:32;;;;;;;5.05;1.60;;;;;;;;;;5036988;28;20238;-77
2023/06/05 07:17:00;;;;;;;1.80;1.70;;;;;;;;;;5045627;28;20309;-77
2023/06/05 07:19:27;;;;;;;2.80;1.50;;;;;;;;;;5048403;28;20317;-78
2023/06/05 07:21:55;;;;;;;3.72;1.77;;;;;;;;;;5042140;28;20236;-77
2023/06/05 07:24:25;;;;;;;3.10;1.85;;;;;;;;;;5041415;28;20211;-78
2023/06/05 07:26:52;;;;;;;1.77;1.60;;;;;;;;;;5045858;28;20253;-78
2023/06/05 07:29:19;;;;;;;3.20;1.60;;;;;;;;;;5044835;28;20245;-78
2023/06/05 07:31:46;;;;;;;2.83;1.60;;;;;;;;;;5041995;28;21058;-78
2023/06/05 07:34:14;;;;;;;2.05;1.48;;;;;;;;;;5048573;28;20198;-78
2023/06/05 07:36:41;;;;;;;2.80;1.55;;;;;;;;;;5049702;28;20298;-78
2023/06/05 07:39:09;;;;;;;1.73;1.48;;;;;;;;;;5041116;28;20257;-77
2023/06/05 07:41:38;;;;;;;2.67;1.67;;;;;;;;;;5041922;28;20206;-78
2023/06/05 07:44:05;;;;;;;3.40;1.67;;;;;;;;;;5041577;28;20253;-79
2023/06/05 07:46:32;;;;;;;1.70;1.50;;;;;;;;;;5041981;28;20708;-76
2023/06/05 07:48:59;;;;;;;1.70;1.48;;;;;;;;;;5044907;28;20206;-75
2023/06/05 07:51:26;;;;;;;2.15;1.55;;;;;;;;;;5051828;28;20230;-75
2023/06/05 07:53:53;;;;;;;3.90;1.45;;;;;;;;;;5041323;28;20553;-75
2023/06/05 07:56:23;;;;;;;1.48;1.38;;;;;;;;;;5040814;28;20222;-75
2023/06/05 07:58:52;;;;;;;3.60;1.60;;;;;;;;;;5044320;28;20230;-78
2023/06/05 08:01:20;;;;;;;2.95;1.70;;;;;;;;;;5043810;28;20256;-77
2023/06/05 08:03:47;;;;;;;2.00;1.52;;;;;;;;;;5041511;28;20268;-78
2023/06/05 08:06:15;;;;;;;3.08;1.40;;;;;;;;;;5039210;28;20569;-78
2023/06/05 08:08:42;;;;;;;1.75;1.65;;;;;;;;;;5039544;28;20308;-77
2023/06/05 08:11:09;;;;;;;2.38;1.58;;;;;;;;;;5042425;28;20409;-77
2023/06/05 08:13:38;;;;;;;1.50;1.40;;;;;;;;;;5034935;28;20219;-77
2023/06/05 08:16:06;;;;;;;1.95;1.60;;;;;;;;;;5037757;28;20253;-78
2023/06/05 08:18:34;;;;;;;3.65;1.70;;;;;;;;;;5043494;28;20668;-78
2023/06/05 08:21:01;;;;;;;1.77;1.40;;;;;;;;;;5032031;28;20222;-77
2023/06/05 08:23:28;;;;;;;2.15;1.90;;;;;;;;;;5032930;28;20210;-79
2023/06/05 08:25:55;;;;;;;2.15;1.55;;;;;;;;;;5032121;28;20297;-78
2023/06/05 08:28:22;;;;;;;1.52;1.42;;;;;;;;;;5032673;28;20227;-77
2023/06/05 08:30:51;;;;;;;2.10;1.70;;;;;;;;;;5031784;28;20256;-78
2023/06/05 08:33:20;;;;;;;2.92;1.75;;;;;;;;;;5032490;28;20234;-77
2023/06/05 08:35:47;;;;;;;2.13;1.67;;;;;;;;;;5031773;28;20310;-78
2023/06/05 08:38:14;;;;;;;1.65;1.55;;;;;;;;;;5032348;28;20223;-79
2023/06/05 08:40:43;;;;;;;1.60;1.50;;;;;;;;;;5035286;28;20287;-77
2023/06/05 08:43:10;;;;;;;1.90;1.60;;;;;;;;;;5044046;28;20202;-79
2023/06/05 08:45:37;;;;;;;3.10;1.63;;;;;;;;;;5042165;28;20237;-76
2023/06/05 08:48:04;;;;;;;2.53;1.73;;;;;;;;;;5040451;28;20242;-77
2023/06/05 08:50:33;;;;;;;1.85;1.60;;;;;;;;;;5042676;28;20244;-77
2023/06/05 08:53:00;;;;;;;1.92;1.80;;;;;;;;;;5044594;28;20268;-78
2023/06/05 08:55:28;;;;;;;4.88;1.95;;;;;;;;;;5043516;28;20233;-77
2023/06/05 08:57:55;;;;;;;1.67;1.50;;;;;;;;;;5035386;28;20240;-78
2023/06/05 09:00:26;;;;;;;2.45;1.90;;;;;;;;;;5043641;28;20282;-83
2023/06/05 09:02:53;;;;;;;2.35;1.75;;;;;;;;;;5039870;28;20217;-75
2023/06/05 09:05:20;;;;;;;1.80;1.70;;;;;;;;;;5039725;28;20740;-76
2023/06/05 09:07:49;;;;;;;1.90;1.80;;;;;;;;;;5041676;28;20234;-76
2023/06/05 09:10:26;;;;;;;1.92;1.80;;;;;;;;;;5042919;28;20249;-76
2023/06/05 09:12:57;;;;;;;1.77;1.60;;;;;;;;;;5042283;28;20532;-76
2023/06/05 09:15:24;;;;;;;3.58;1.70;;;;;;;;;;5043187;28;20229;-75
2023/06/05 09:18:03;;;;;;;2.80;1.90;;;;;;;;;;5039410;28;20261;-75
2023/06/05 09:20:34;;;;;;;3.97;1.88;;;;;;;;;;5039508;28;20266;-76
2023/06/05 09:23:03;;;;;;;2.05;1.85;;;;;;;;;;5043521;28;20280;-76
2023/06/05 09:25:47;;;;;;;1.65;1.55;;;;;;;;;;5039448;28;20237;-75
2023/06/05 09:28:15;;;;;;;4.43;2.03;;;;;;;;;;5037310;28;20226;-75
2023/06/05 09:30:55;;;;;;;4.85;1.88;;;;;;;;;;5041028;28;20238;-75
2023/06/05 09:33:23;;;;;;;3.28;1.95;;;;;;;;;;5046632;28;20293;-75
2023/06/05 09:36:02;;;;;;;2.10;1.83;;;;;;;;;;5039600;28;20226;-75
2023/06/05 09:38:31;;;;;;;2.63;1.85;;;;;;;;;;5039223;28;20268;-75
2023/06/05 09:41:18;;;;;;;3.00;2.10;;;;;;;;;;5042110;28;20616;-76
2023/06/05 09:43:46;;;;;;;3.17;2.35;;;;;;;;;;5043682;28;20257;-75
2023/06/05 09:46:13;;;;;;;2.10;1.90;;;;;;;;;;5038873;28;20254;-76
2023/06/05 09:48:40;;;;;;;1.60;1.50;;;;;;;;;;5040277;28;20606;-76
2023/06/05 09:51:12;;;;;;;1.77;1.67;;;;;;;;;;5044866;28;20234;-76
2023/06/05 09:53:45;;;;;;;2.55;1.80;;;;;;;;;;5039835;28;20625;-76
2023/06/05 09:56:14;;;;;;;3.00;1.92;;;;;;;;;;5042484;28;20226;-78
2023/06/05 09:58:42;;;;;;;2.17;1.80;;;;;;;;;;5041149;28;20345;-76
2023/06/05 10:01:10;;;;;;;1.90;1.70;;;;;;;;;;5038765;28;20623;-76
2023/06/05 10:03:38;;;;;;;1.98;1.77;;;;;;;;;;5039641;28;20620;-77
2023/06/05 10:06:06;;;;;;;1.90;1.77;;;;;;;;;;5042126;28;20230;-76
2023/06/05 10:08:33;;;;;;;2.03;1.80;;;;;;;;;;5042054;28;20652;-77
2023/06/05 10:11:02;;;;;;;3.75;2.40;;;;;;;;;;5041720;28;20295;-76
2023/06/05 10:13:29;;;;;;;2.03;1.90;;;;;;;;;;5042476;28;20279;-76
2023/06/05 10:15:57;;;;;;;2.50;1.80;;;;;;;;;;5038859;28;20234;-76
2023/06/05 10:18:24;;;;;;;4.18;1.63;;;;;;;;;;5030586;28;20631;-76
2023/06/05 10:20:51;;;;;;;2.28;1.52;;;;;;;;;;5040844;28;20694;-75
2023/06/05 10:23:19;;;;;;;1.45;1.30;;;;;;;;;;5042154;28;20202;-77
2023/06/05 10:25:47;;;;;;;2.50;1.83;;;;;;;;;;5042926;28;20240;-77
2023/06/05 10:28:24;;;;;;;2.55;1.60;;;;;;;;;;5042752;28;20233;-76
2023/06/05 10:31:01;;;;;;;4.43;1.70;;;;;;;;;;5042554;28;20261;-75
2023/06/05 10:33:37;;;;;;;4.15;1.80;;;;;;;;;;5050143;28;20206;-76
2023/06/05 10:36:11;;;;;;;1.88;1.70;;;;;;;;;;5033690;28;20317;-76
2023/06/05 10:38:39;;;;;;;1.60;1.50;;;;;;;;;;5037500;28;20230;-76
2023/06/05 10:41:07;;;;;;;1.50;1.40;;;;;;;;;;5045091;28;20222;-76
2023/06/05 10:43:37;;;;;;;2.13;1.80;;;;;;;;;;5051563;28;20629;-76
2023/06/05 10:46:24;;;;;;;2.90;1.73;;;;;;;;;;5037636;28;20233;-76
2023/06/05 10:49:08;;;;;;;3.78;1.60;;;;;;;;;;5042556;28;20222;-76
2023/06/05 10:51:37;;;;;;;1.98;1.58;;;;;;;;;;5043509;28;20253;-76
2023/06/05 10:54:05;;;;;;;2.85;1.70;;;;;;;;;;5041524;28;20218;-76
2023/06/05 10:56:50;;;;;;;1.50;1.40;;;;;;;;;;5041660;28;20211;-76
2023/06/05 10:59:21;;;;;;;1.90;1.80;;;;;;;;;;5041389;28;20203;-76
2023/06/05 11:02:16;;;;;;;1.70;1.60;;;;;;;;;;5042881;28;20229;-76
2023/06/05 11:05:04;;;;;;;1.98;1.80;;;;;;;;;;5048592;28;20284;-75
2023/06/05 11:07:31;;;;;;;1.50;1.40;;;;;;;;;;5044347;28;20237;-77
2023/06/05 11:10:15;;;;;;;3.22;1.77;;;;;;;;;;5035803;28;20754;-77
2023/06/05 11:12:58;;;;;;;4.82;2.03;;;;;;;;;;5043986;28;20210;-76
2023/06/05 11:15:40;;;;;;;1.60;1.50;;;;;;;;;;5040468;28;20317;-76
2023/06/05 11:18:26;;;;;;;1.67;1.52;;;;;;;;;;5037062;28;20692;-75
2023/06/05 11:20:53;;;;;;;1.45;1.30;;;;;;;;;;5042455;28;20230;-77
2023/06/05 11:23:21;;;;;;;1.50;1.40;;;;;;;;;;5044829;28;20871;-77
2023/06/05 11:25:50;;;;;;;1.80;1.70;;;;;;;;;;5040394;28;20257;-76
2023/06/05 11:28:37;;;;;;;1.65;1.50;;;;;;;;;;5038105;28;20704;-76
2023/06/05 11:31:05;;;;;;;1.70;1.58;;;;;;;;;;5047148;28;20238;-77
2023/06/05 11:33:32;;;;;;;1.55;1.30;;;;;;;;;;5041239;28;20207;-77
2023/06/05 11:36:01;;;;;;;5.80;1.73;;;;;;;;;;5041379;28;20231;-76
2023/06/05 11:38:28;;;;;;;3.97;1.75;;;;;;;;;;5040693;28;20222;-75
2023/06/05 11:40:57;;;;;;;3.35;1.77;;;;;;;;;;5042802;28;20241;-75
2023/06/05 11:43:24;;;;;;;1.92;1.73;;;;;;;;;;5044955;28;20210;-76
2023/06/05 11:45:51;;;;;;;10.55;1.80;;;;;;;;;;5043388;28;20240;-75
2023/06/05 11:48:20;;;;;;;3.78;1.90;;;;;;;;;;5044200;28;20229;-76
2023/06/05 11:50:54;;;;;;;3.65;1.95;;;;;;;;;;5036096;28;20225;-76
2023/06/05 11:53:21;;;;;;;2.35;1.58;;;;;;;;;;5040710;28;20739;-75
2023/06/05 11:58:30;;;;;;;1.60;1.50;;;;;;;;;;5034066;28;20230;-76
2023/06/05 12:01:05;;;;;;;2.13;1.85;;;;;;;;;;5032142;28;20231;-76
2023/06/05 12:03:35;;;;;;;2.75;1.70;;;;;;;;;;5032554;28;20220;-75
2023/06/05 12:06:03;;;;;;;1.98;1.60;;;;;;;;;;5033806;28;20655;-76
2023/06/05 12:08:32;;;;;;;3.55;1.83;;;;;;;;;;5044485;28;20935;-76
2023/06/05 12:11:00;;;;;;;1.92;1.58;;;;;;;;;;5031781;28;20317;-76
2023/06/05 12:13:42;;;;;;;2.42;2.00;;;;;;;;;;5032644;28;20198;-75
2023/06/05 12:16:09;;;;;;;4.22;2.00;;;;;;;;;;5043737;28;20513;-75
2023/06/05 12:18:37;;;;;;;5.13;1.70;;;;;;;;;;5035523;28;20218;-76
2023/06/05 12:21:06;;;;;;;1.88;1.70;;;;;;;;;;5034520;28;20237;-76
2023/06/05 12:23:33;;;;;;;1.67;1.48;;;;;;;;;;5045111;28;20241;-76
2023/06/05 12:26:01;;;;;;;5.13;2.40;;;;;;;;;;5033873;28;20237;-75
2023/06/05 12:28:28;;;;;;;3.22;1.55;;;;;;;;;;5036980;28;20226;-76
2023/06/05 12:30:55;;;;;;;1.70;1.60;;;;;;;;;;5031609;28;20230;-75
2023/06/05 12:33:24;;;;;;;2.45;1.65;;;;;;;;;;5031862;28;20251;-75
2023/06/05 12:36:05;;;;;;;2.10;1.63;;;;;;;;;;5031484;28;20237;-76
2023/06/05 12:38:32;;;;;;;4.22;1.75;;;;;;;;;;5037338;28;20224;-76
2023/06/05 12:41:00;;;;;;;1.95;1.63;;;;;;;;;;5041816;28;20230;-76
2023/06/05 12:43:27;;;;;;;2.13;1.67;;;;;;;;;;5040261;28;20202;-76
2023/06/05 12:45:54;;;;;;;2.55;1.63;;;;;;;;;;5046035;28;20233;-76
2023/06/05 12:48:22;;;;;;;2.58;1.38;;;;;;;;;;5038345;28;20257;-76
2023/06/05 12:50:50;;;;;;;1.85;1.67;;;;;;;;;;5041483;28;20225;-74
2023/06/05 12:53:18;;;;;;;1.77;1.60;;;;;;;;;;5039773;28;20240;-76
2023/06/05 12:55:45;;;;;;;1.88;1.77;;;;;;;;;;5039629;28;20238;-75
2023/06/05 12:58:12;;;;;;;1.80;1.70;;;;;;;;;;5041148;28;20222;-75
2023/06/05 13:00:40;;;;;;;2.00;1.77;;;;;;;;;;5041826;28;20693;-76
2023/06/05 13:03:07;;;;;;;2.10;1.67;;;;;;;;;;5035045;28;20210;-75
2023/06/05 13:05:34;;;;;;;2.22;1.73;;;;;;;;;;5038100;28;20229;-75
2023/06/05 13:08:01;;;;;;;2.28;1.80;;;;;;;;;;5036177;28;20321;-78
2023/06/05 13:10:29;;;;;;;2.60;1.92;;;;;;;;;;5042028;28;20217;-80
2023/06/05 13:12:56;;;;;;;1.77;1.67;;;;;;;;;;5032230;28;20214;-79
2023/06/05 13:15:23;;;;;;;1.60;1.50;;;;;;;;;;5041742;28;20225;-79
2023/06/05 13:17:50;;;;;;;1.83;1.70;;;;;;;;;;5041261;28;20275;-79
2023/06/05 13:20:17;;;;;;;2.72;1.92;;;;;;;;;;5036370;28;20279;-81
2023/06/05 13:22:45;;;;;;;3.30;1.60;;;;;;;;;;5042409;28;20214;-80
2023/06/05 13:25:12;;;;;;;1.80;1.60;;;;;;;;;;5042573;28;20253;-81
2023/06/05 13:27:41;;;;;;;1.85;1.75;;;;;;;;;;5042826;28;20234;-80
2023/06/05 13:30:09;;;;;;;1.75;1.65;;;;;;;;;;5030448;28;20580;-79
2023/06/05 13:32:37;;;;;;;2.08;1.67;;;;;;;;;;5030918;28;20249;-82
2023/06/05 13:35:05;;;;;;;2.92;1.60;;;;;;;;;;5038652;28;20243;-83
2023/06/05 13:37:32;;;;;;;1.90;1.77;;;;;;;;;;5044584;28;20235;-82
2023/06/05 13:39:59;;;;;;;2.40;2.20;;;;;;;;;;5046464;28;20234;-83
2023/06/05 13:42:26;;;;;;;3.30;1.88;;;;;;;;;;5031206;28;20622;-81
2023/06/05 13:44:55;;;;;;;2.55;1.92;;;;;;;;;;5043564;28;20221;-83
2023/06/05 13:47:22;;;;;;;2.17;1.90;;;;;;;;;;5037879;28;20233;-84
2023/06/05 13:49:49;;;;;;;2.03;1.88;;;;;;;;;;5049429;28;20708;-83
2023/06/05 13:52:16;;;;;;;4.97;1.92;;;;;;;;;;5034955;28;20201;-81
2023/06/05 13:54:43;;;;;;;1.70;1.60;;;;;;;;;;5042151;28;20654;-81
2023/06/05 13:57:12;;;;;;;2.40;1.67;;;;;;;;;;5038677;28;20230;-82
2023/06/05 13:59:39;;;;;;;1.45;1.35;;;;;;;;;;5037140;28;20238;-81
2023/06/05 14:02:07;;;;;;;1.80;1.70;;;;;;;;;;5039191;28;20272;-80
2023/06/05 14:04:34;;;;;;;2.67;1.88;;;;;;;;;;5038988;28;20669;-81
2023/06/05 14:07:03;;;;;;;1.88;1.77;;;;;;;;;;5041770;28;20234;-80
2023/06/05 14:09:30;;;;;;;1.83;1.73;;;;;;;;;;5041715;28;20291;-81
2023/06/05 14:11:57;;;;;;;1.98;1.70;;;;;;;;;;5031901;28;20202;-82
2023/06/05 14:14:24;;;;;;;1.50;1.40;;;;;;;;;;5030297;28;20723;-81
2023/06/05 14:16:51;;;;;;;1.98;1.80;;;;;;;;;;5049034;28;20272;-81
2023/06/05 14:19:20;;;;;;;2.85;1.75;;;;;;;;;;5038036;28;20261;-81
2023/06/05 14:21:47;;;;;;;1.70;1.60;;;;;;;;;;5041194;28;20202;-81
2023/06/05 14:24:15;;;;;;;2.15;1.48;;;;;;;;;;5040499;28;20245;-80
2023/06/05 14:26:42;;;;;;;2.00;1.80;;;;;;;;;;5040785;28;20297;-80
2023/06/05 14:29:09;;;;;;;2.15;1.70;;;;;;;;;;5039719;28;20313;-80
2023/06/05 14:31:37;;;;;;;2.53;1.98;;;;;;;;;;5041963;28;20221;-81
2023/06/05 14:34:04;;;;;;;1.73;1.63;;;;;;;;;;5038312;28;20210;-81
2023/06/05 14:36:33;;;;;;;3.65;2.33;;;;;;;;;;5039087;28;20218;-81
2023/06/05 14:39:00;;;;;;;2.10;1.90;;;;;;;;;;5046246;28;20215;-82
2023/06/05 14:41:27;;;;;;;2.67;1.85;;;;;;;;;;5042039;28;20230;-81
2023/06/05 14:43:54;;;;;;;2.13;1.92;;;;;;;;;;5044160;28;20199;-81
2023/06/05 14:46:21;;;;;;;2.05;1.73;;;;;;;;;;5039465;28;20225;-80
2023/06/05 14:48:48;;;;;;;2.90;1.85;;;;;;;;;;5042523;28;20238;-79
2023/06/05 14:51:15;;;;;;;3.47;1.90;;;;;;;;;;5038258;28;20657;-80
2023/06/05 14:53:43;;;;;;;5.05;2.33;;;;;;;;;;5035871;28;20356;-80